sensor_id;sensor_type;location;lat;lon;timestamp;P1;durP1;ratioP1;P2;durP2;ratioP2
5125;SDS011;63008;53.112;8.896;2023-03-01T00:00:06;20.33;;;14.40;;
5125;SDS011;63008;53.112;8.896;2023-03-01T00:02:08;21.30;;;13.80;;
5125;SDS011;63008;53.112;8.896;2023-03-01T00:04:09;18.47;;;13.90;;
5125;SDS011;63008;53.112;8.896;2023-03-01T00:06:16;21.93;;;14.67;;
5125;SDS011;63008;53.112;8.896;2023-03-01T00:08:18;19.30;;;13.50;;
5125;SDS011;63008;53.112;8.896;2023-03-01T00:10:19;20.63;;;14.70;;
5125;SDS011;63008;53.112;8.896;2023-03-01T00:12:20;17.90;;;13.67;;
5125;SDS011;63008;53.112;8.896;2023-03-01T00:14:21;22.67;;;14.47;;
5125;SDS011;63008;53.112;8.896;2023-03-01T00:16:25;20.97;;;13.63;;
5125;SDS011;63008;53.112;8.896;2023-03-01T00:18:31;17.40;;;14.00;;
5125;SDS011;63008;53.112;8.896;2023-03-01T00:20:33;16.90;;;13.30;;
5125;SDS011;63008;53.112;8.896;2023-03-01T00:22:34;18.40;;;14.00;;
5125;SDS011;63008;53.112;8.896;2023-03-01T00:24:35;19.77;;;13.20;;
5125;SDS011;63008;53.112;8.896;2023-03-01T00:26:36;15.27;;;12.70;;
5125;SDS011;63008;53.112;8.896;2023-03-01T00:28:38;16.30;;;12.30;;
5125;SDS011;63008;53.112;8.896;2023-03-01T00:30:39;17.07;;;13.07;;
5125;SDS011;63008;53.112;8.896;2023-03-01T00:32:40;16.53;;;13.53;;
5125;SDS011;63008;53.112;8.896;2023-03-01T00:34:41;17.30;;;12.20;;
5125;SDS011;63008;53.112;8.896;2023-03-01T00:36:42;20.53;;;13.83;;
5125;SDS011;63008;53.112;8.896;2023-03-01T00:38:43;16.13;;;12.50;;
5125;SDS011;63008;53.112;8.896;2023-03-01T00:40:45;16.57;;;13.13;;
5125;SDS011;63008;53.112;8.896;2023-03-01T00:42:46;27.10;;;14.60;;
5125;SDS011;63008;53.112;8.896;2023-03-01T00:44:47;18.00;;;14.20;;
5125;SDS011;63008;53.112;8.896;2023-03-01T00:46:48;19.10;;;13.27;;
5125;SDS011;63008;53.112;8.896;2023-03-01T00:48:49;20.10;;;13.60;;
5125;SDS011;63008;53.112;8.896;2023-03-01T00:50:50;16.80;;;12.63;;
5125;SDS011;63008;53.112;8.896;2023-03-01T00:52:54;18.00;;;12.70;;
5125;SDS011;63008;53.112;8.896;2023-03-01T00:54:56;18.60;;;13.43;;
5125;SDS011;63008;53.112;8.896;2023-03-01T00:56:58;20.00;;;14.50;;
5125;SDS011;63008;53.112;8.896;2023-03-01T00:58:59;21.30;;;13.67;;
5125;SDS011;63008;53.112;8.896;2023-03-01T01:01:00;19.87;;;14.47;;
5125;SDS011;63008;53.112;8.896;2023-03-01T01:03:07;18.50;;;13.70;;
5125;SDS011;63008;53.112;8.896;2023-03-01T01:05:08;18.87;;;13.33;;
5125;SDS011;63008;53.112;8.896;2023-03-01T01:07:09;18.50;;;13.97;;
5125;SDS011;63008;53.112;8.896;2023-03-01T01:09:11;17.10;;;12.93;;
5125;SDS011;63008;53.112;8.896;2023-03-01T01:11:17;20.20;;;13.73;;
5125;SDS011;63008;53.112;8.896;2023-03-01T01:13:19;21.53;;;14.00;;
5125;SDS011;63008;53.112;8.896;2023-03-01T01:15:20;18.80;;;12.77;;
5125;SDS011;63008;53.112;8.896;2023-03-01T01:17:21;17.03;;;12.33;;
5125;SDS011;63008;53.112;8.896;2023-03-01T01:19:22;17.90;;;13.40;;
5125;SDS011;63008;53.112;8.896;2023-03-01T01:21:23;19.30;;;13.13;;
5125;SDS011;63008;53.112;8.896;2023-03-01T01:23:25;20.20;;;12.63;;
5125;SDS011;63008;53.112;8.896;2023-03-01T01:25:26;20.23;;;13.73;;
5125;SDS011;63008;53.112;8.896;2023-03-01T01:27:29;17.97;;;13.47;;
5125;SDS011;63008;53.112;8.896;2023-03-01T01:29:30;18.93;;;14.07;;
5125;SDS011;63008;53.112;8.896;2023-03-01T01:31:31;17.27;;;12.10;;
5125;SDS011;63008;53.112;8.896;2023-03-01T01:33:33;17.60;;;12.20;;
5125;SDS011;63008;53.112;8.896;2023-03-01T01:35:35;17.13;;;13.17;;
5125;SDS011;63008;53.112;8.896;2023-03-01T01:37:36;18.90;;;14.30;;
5125;SDS011;63008;53.112;8.896;2023-03-01T01:39:37;18.53;;;12.37;;
5125;SDS011;63008;53.112;8.896;2023-03-01T01:41:39;18.37;;;12.37;;
5125;SDS011;63008;53.112;8.896;2023-03-01T01:43:46;18.17;;;13.07;;
5125;SDS011;63008;53.112;8.896;2023-03-01T01:45:49;19.43;;;12.37;;
5125;SDS011;63008;53.112;8.896;2023-03-01T01:47:51;16.83;;;11.93;;
5125;SDS011;63008;53.112;8.896;2023-03-01T01:49:55;16.30;;;12.83;;
5125;SDS011;63008;53.112;8.896;2023-03-01T01:51:59;19.10;;;12.93;;
5125;SDS011;63008;53.112;8.896;2023-03-01T01:54:06;17.03;;;11.33;;
5125;SDS011;63008;53.112;8.896;2023-03-01T01:56:11;19.60;;;12.93;;
5125;SDS011;63008;53.112;8.896;2023-03-01T01:58:17;17.43;;;12.87;;
5125;SDS011;63008;53.112;8.896;2023-03-01T02:00:24;14.23;;;12.10;;
5125;SDS011;63008;53.112;8.896;2023-03-01T02:02:27;17.83;;;12.70;;
5125;SDS011;63008;53.112;8.896;2023-03-01T02:04:28;21.70;;;12.43;;
5125;SDS011;63008;53.112;8.896;2023-03-01T02:06:39;17.53;;;12.47;;
5125;SDS011;63008;53.112;8.896;2023-03-01T02:08:45;17.23;;;11.23;;
5125;SDS011;63008;53.112;8.896;2023-03-01T02:10:49;15.37;;;11.57;;
5125;SDS011;63008;53.112;8.896;2023-03-01T02:12:52;14.77;;;11.20;;
5125;SDS011;63008;53.112;8.896;2023-03-01T02:14:54;16.03;;;11.90;;
5125;SDS011;63008;53.112;8.896;2023-03-01T02:16:55;19.63;;;11.00;;
5125;SDS011;63008;53.112;8.896;2023-03-01T02:18:58;17.87;;;12.27;;
5125;SDS011;63008;53.112;8.896;2023-03-01T02:21:12;17.43;;;10.60;;
5125;SDS011;63008;53.112;8.896;2023-03-01T02:23:33;16.20;;;12.17;;
5125;SDS011;63008;53.112;8.896;2023-03-01T02:25:38;13.37;;;11.10;;
5125;SDS011;63008;53.112;8.896;2023-03-01T02:30:16;21.10;;;11.77;;
5125;SDS011;63008;53.112;8.896;2023-03-01T02:32:19;17.87;;;11.90;;
5125;SDS011;63008;53.112;8.896;2023-03-01T02:34:25;17.50;;;11.50;;
5125;SDS011;63008;53.112;8.896;2023-03-01T02:36:28;17.97;;;12.83;;
5125;SDS011;63008;53.112;8.896;2023-03-01T02:38:34;16.17;;;11.83;;
5125;SDS011;63008;53.112;8.896;2023-03-01T02:40:35;14.70;;;11.60;;
5125;SDS011;63008;53.112;8.896;2023-03-01T02:42:52;17.70;;;11.60;;
5125;SDS011;63008;53.112;8.896;2023-03-01T02:44:56;15.23;;;11.60;;
5125;SDS011;63008;53.112;8.896;2023-03-01T02:46:57;17.87;;;11.70;;
5125;SDS011;63008;53.112;8.896;2023-03-01T02:49:16;13.80;;;11.90;;
5125;SDS011;63008;53.112;8.896;2023-03-01T02:51:27;15.80;;;11.63;;
5125;SDS011;63008;53.112;8.896;2023-03-01T02:56:16;16.90;;;11.30;;
5125;SDS011;63008;53.112;8.896;2023-03-01T02:58:17;14.10;;;11.10;;
5125;SDS011;63008;53.112;8.896;2023-03-01T03:00:23;15.60;;;11.07;;
5125;SDS011;63008;53.112;8.896;2023-03-01T03:02:27;20.70;;;12.23;;
5125;SDS011;63008;53.112;8.896;2023-03-01T03:04:39;13.33;;;11.13;;
5125;SDS011;63008;53.112;8.896;2023-03-01T03:06:40;16.30;;;11.77;;
5125;SDS011;63008;53.112;8.896;2023-03-01T03:08:41;13.67;;;10.40;;
5125;SDS011;63008;53.112;8.896;2023-03-01T03:10:42;14.50;;;11.53;;
5125;SDS011;63008;53.112;8.896;2023-03-01T03:12:43;16.30;;;11.57;;
5125;SDS011;63008;53.112;8.896;2023-03-01T03:14:44;15.70;;;11.60;;
5125;SDS011;63008;53.112;8.896;2023-03-01T03:16:46;15.07;;;11.70;;
5125;SDS011;63008;53.112;8.896;2023-03-01T03:18:49;17.70;;;11.57;;
5125;SDS011;63008;53.112;8.896;2023-03-01T03:20:50;16.33;;;10.97;;
5125;SDS011;63008;53.112;8.896;2023-03-01T03:22:53;14.93;;;11.37;;
5125;SDS011;63008;53.112;8.896;2023-03-01T03:24:55;14.93;;;10.63;;
5125;SDS011;63008;53.112;8.896;2023-03-01T03:26:56;14.57;;;11.40;;
5125;SDS011;63008;53.112;8.896;2023-03-01T03:28:57;14.70;;;11.60;;
5125;SDS011;63008;53.112;8.896;2023-03-01T03:30:59;14.33;;;11.80;;
5125;SDS011;63008;53.112;8.896;2023-03-01T03:33:04;14.20;;;10.47;;
5125;SDS011;63008;53.112;8.896;2023-03-01T03:35:07;19.30;;;11.40;;
5125;SDS011;63008;53.112;8.896;2023-03-01T03:37:10;14.30;;;10.80;;
5125;SDS011;63008;53.112;8.896;2023-03-01T03:39:30;14.37;;;11.70;;
5125;SDS011;63008;53.112;8.896;2023-03-01T03:41:35;13.63;;;11.20;;
5125;SDS011;63008;53.112;8.896;2023-03-01T03:43:36;13.73;;;10.93;;
5125;SDS011;63008;53.112;8.896;2023-03-01T03:45:38;15.00;;;11.60;;
5125;SDS011;63008;53.112;8.896;2023-03-01T03:47:40;15.50;;;11.40;;
5125;SDS011;63008;53.112;8.896;2023-03-01T03:49:41;14.90;;;10.53;;
5125;SDS011;63008;53.112;8.896;2023-03-01T03:51:44;16.63;;;11.97;;
5125;SDS011;63008;53.112;8.896;2023-03-01T03:53:46;16.97;;;11.70;;
5125;SDS011;63008;53.112;8.896;2023-03-01T03:55:47;15.27;;;10.60;;
5125;SDS011;63008;53.112;8.896;2023-03-01T03:57:49;17.50;;;11.20;;
5125;SDS011;63008;53.112;8.896;2023-03-01T03:59:54;23.23;;;11.97;;
5125;SDS011;63008;53.112;8.896;2023-03-01T04:01:55;19.23;;;11.23;;
5125;SDS011;63008;53.112;8.896;2023-03-01T04:03:56;14.60;;;10.87;;
5125;SDS011;63008;53.112;8.896;2023-03-01T04:06:03;16.03;;;11.73;;
5125;SDS011;63008;53.112;8.896;2023-03-01T04:08:07;13.30;;;11.13;;
5125;SDS011;63008;53.112;8.896;2023-03-01T04:10:11;15.53;;;11.67;;
5125;SDS011;63008;53.112;8.896;2023-03-01T04:12:16;14.10;;;11.20;;
5125;SDS011;63008;53.112;8.896;2023-03-01T04:14:21;13.53;;;11.10;;
5125;SDS011;63008;53.112;8.896;2023-03-01T04:16:22;12.97;;;11.20;;
5125;SDS011;63008;53.112;8.896;2023-03-01T04:18:26;14.97;;;10.93;;
5125;SDS011;63008;53.112;8.896;2023-03-01T04:20:28;14.10;;;11.47;;
5125;SDS011;63008;53.112;8.896;2023-03-01T04:22:31;16.40;;;11.97;;
5125;SDS011;63008;53.112;8.896;2023-03-01T04:24:33;13.17;;;10.97;;
5125;SDS011;63008;53.112;8.896;2023-03-01T04:26:34;17.07;;;11.23;;
5125;SDS011;63008;53.112;8.896;2023-03-01T04:28:36;13.43;;;11.07;;
5125;SDS011;63008;53.112;8.896;2023-03-01T04:30:40;13.73;;;10.50;;
5125;SDS011;63008;53.112;8.896;2023-03-01T04:32:42;14.00;;;9.20;;
5125;SDS011;63008;53.112;8.896;2023-03-01T04:34:43;14.47;;;10.23;;
5125;SDS011;63008;53.112;8.896;2023-03-01T04:36:43;20.50;;;11.50;;
5125;SDS011;63008;53.112;8.896;2023-03-01T04:38:45;13.20;;;9.80;;
5125;SDS011;63008;53.112;8.896;2023-03-01T04:40:49;12.30;;;10.37;;
5125;SDS011;63008;53.112;8.896;2023-03-01T04:42:50;14.87;;;11.10;;
5125;SDS011;63008;53.112;8.896;2023-03-01T04:44:51;13.23;;;9.90;;
5125;SDS011;63008;53.112;8.896;2023-03-01T04:46:52;14.33;;;10.87;;
5125;SDS011;63008;53.112;8.896;2023-03-01T04:48:53;15.50;;;11.33;;
5125;SDS011;63008;53.112;8.896;2023-03-01T04:50:54;19.33;;;12.10;;
5125;SDS011;63008;53.112;8.896;2023-03-01T04:52:55;13.90;;;9.97;;
5125;SDS011;63008;53.112;8.896;2023-03-01T04:54:58;14.80;;;10.47;;
5125;SDS011;63008;53.112;8.896;2023-03-01T04:57:00;13.53;;;10.37;;
5125;SDS011;63008;53.112;8.896;2023-03-01T04:59:02;13.50;;;10.00;;
5125;SDS011;63008;53.112;8.896;2023-03-01T05:01:09;13.10;;;11.00;;
5125;SDS011;63008;53.112;8.896;2023-03-01T05:03:15;14.30;;;11.23;;
5125;SDS011;63008;53.112;8.896;2023-03-01T05:05:19;13.70;;;10.87;;
5125;SDS011;63008;53.112;8.896;2023-03-01T05:07:39;14.10;;;10.87;;
5125;SDS011;63008;53.112;8.896;2023-03-01T05:09:40;13.70;;;10.13;;
5125;SDS011;63008;53.112;8.896;2023-03-01T05:11:41;10.97;;;9.83;;
5125;SDS011;63008;53.112;8.896;2023-03-01T05:13:42;13.07;;;10.43;;
5125;SDS011;63008;53.112;8.896;2023-03-01T05:15:43;13.50;;;10.77;;
5125;SDS011;63008;53.112;8.896;2023-03-01T05:17:44;14.17;;;10.60;;
5125;SDS011;63008;53.112;8.896;2023-03-01T05:19:44;14.10;;;10.20;;
5125;SDS011;63008;53.112;8.896;2023-03-01T05:21:46;14.07;;;10.77;;
5125;SDS011;63008;53.112;8.896;2023-03-01T05:24:02;14.27;;;9.53;;
5125;SDS011;63008;53.112;8.896;2023-03-01T05:26:04;12.73;;;10.87;;
5125;SDS011;63008;53.112;8.896;2023-03-01T05:28:08;14.60;;;10.57;;
5125;SDS011;63008;53.112;8.896;2023-03-01T05:30:12;11.87;;;10.40;;
5125;SDS011;63008;53.112;8.896;2023-03-01T05:32:17;19.23;;;11.53;;
5125;SDS011;63008;53.112;8.896;2023-03-01T05:34:18;15.60;;;10.47;;
5125;SDS011;63008;53.112;8.896;2023-03-01T05:36:19;12.70;;;10.33;;
5125;SDS011;63008;53.112;8.896;2023-03-01T05:38:20;15.27;;;10.60;;
5125;SDS011;63008;53.112;8.896;2023-03-01T05:40:22;13.53;;;10.67;;
5125;SDS011;63008;53.112;8.896;2023-03-01T05:42:24;14.93;;;10.43;;
5125;SDS011;63008;53.112;8.896;2023-03-01T05:44:25;12.87;;;10.40;;
5125;SDS011;63008;53.112;8.896;2023-03-01T05:46:27;13.23;;;10.70;;
5125;SDS011;63008;53.112;8.896;2023-03-01T05:48:28;14.47;;;11.03;;
5125;SDS011;63008;53.112;8.896;2023-03-01T05:50:31;16.23;;;10.63;;
5125;SDS011;63008;53.112;8.896;2023-03-01T05:52:34;16.53;;;10.43;;
5125;SDS011;63008;53.112;8.896;2023-03-01T05:54:35;11.97;;;9.77;;
5125;SDS011;63008;53.112;8.896;2023-03-01T05:56:36;15.10;;;10.37;;
5125;SDS011;63008;53.112;8.896;2023-03-01T05:58:37;12.03;;;9.93;;
5125;SDS011;63008;53.112;8.896;2023-03-01T06:00:39;11.10;;;9.53;;
5125;SDS011;63008;53.112;8.896;2023-03-01T06:02:40;11.27;;;9.40;;
5125;SDS011;63008;53.112;8.896;2023-03-01T06:04:41;13.00;;;10.17;;
5125;SDS011;63008;53.112;8.896;2023-03-01T06:06:42;12.53;;;9.47;;
5125;SDS011;63008;53.112;8.896;2023-03-01T06:08:43;12.30;;;9.90;;
5125;SDS011;63008;53.112;8.896;2023-03-01T06:10:44;14.87;;;9.80;;
5125;SDS011;63008;53.112;8.896;2023-03-01T06:12:48;13.90;;;10.13;;
5125;SDS011;63008;53.112;8.896;2023-03-01T06:14:49;10.50;;;9.40;;
5125;SDS011;63008;53.112;8.896;2023-03-01T06:16:50;11.83;;;9.33;;
5125;SDS011;63008;53.112;8.896;2023-03-01T06:18:51;11.00;;;8.73;;
5125;SDS011;63008;53.112;8.896;2023-03-01T06:20:52;12.20;;;9.27;;
5125;SDS011;63008;53.112;8.896;2023-03-01T06:22:56;12.40;;;8.87;;
5125;SDS011;63008;53.112;8.896;2023-03-01T06:24:57;11.90;;;10.47;;
5125;SDS011;63008;53.112;8.896;2023-03-01T06:26:58;12.23;;;9.27;;
5125;SDS011;63008;53.112;8.896;2023-03-01T06:28:59;27.23;;;10.13;;
5125;SDS011;63008;53.112;8.896;2023-03-01T06:31:00;11.50;;;8.63;;
5125;SDS011;63008;53.112;8.896;2023-03-01T06:33:01;9.93;;;8.90;;
5125;SDS011;63008;53.112;8.896;2023-03-01T06:35:04;12.03;;;9.60;;
5125;SDS011;63008;53.112;8.896;2023-03-01T06:37:06;14.20;;;9.13;;
5125;SDS011;63008;53.112;8.896;2023-03-01T06:39:07;9.40;;;8.50;;
5125;SDS011;63008;53.112;8.896;2023-03-01T06:41:08;9.27;;;8.37;;
5125;SDS011;63008;53.112;8.896;2023-03-01T06:43:09;9.27;;;8.27;;
5125;SDS011;63008;53.112;8.896;2023-03-01T06:45:10;11.93;;;8.83;;
5125;SDS011;63008;53.112;8.896;2023-03-01T06:47:12;11.00;;;8.70;;
5125;SDS011;63008;53.112;8.896;2023-03-01T06:49:13;13.57;;;8.40;;
5125;SDS011;63008;53.112;8.896;2023-03-01T06:51:14;12.40;;;9.00;;
5125;SDS011;63008;53.112;8.896;2023-03-01T06:53:15;10.27;;;8.37;;
5125;SDS011;63008;53.112;8.896;2023-03-01T06:55:16;14.63;;;8.30;;
5125;SDS011;63008;53.112;8.896;2023-03-01T06:57:17;15.77;;;9.37;;
5125;SDS011;63008;53.112;8.896;2023-03-01T06:59:18;11.50;;;8.73;;
5125;SDS011;63008;53.112;8.896;2023-03-01T07:01:19;10.07;;;9.00;;
5125;SDS011;63008;53.112;8.896;2023-03-01T07:03:20;9.43;;;8.43;;
5125;SDS011;63008;53.112;8.896;2023-03-01T07:05:21;11.67;;;7.80;;
5125;SDS011;63008;53.112;8.896;2023-03-01T07:07:22;12.70;;;8.60;;
5125;SDS011;63008;53.112;8.896;2023-03-01T07:09:23;11.90;;;10.17;;
5125;SDS011;63008;53.112;8.896;2023-03-01T07:11:25;15.43;;;11.30;;
5125;SDS011;63008;53.112;8.896;2023-03-01T07:13:26;10.00;;;9.00;;
5125;SDS011;63008;53.112;8.896;2023-03-01T07:15:27;10.63;;;9.07;;
5125;SDS011;63008;53.112;8.896;2023-03-01T07:17:28;9.43;;;8.57;;
5125;SDS011;63008;53.112;8.896;2023-03-01T07:19:29;11.20;;;9.30;;
5125;SDS011;63008;53.112;8.896;2023-03-01T07:21:30;13.40;;;9.87;;
5125;SDS011;63008;53.112;8.896;2023-03-01T07:23:31;12.17;;;9.53;;
5125;SDS011;63008;53.112;8.896;2023-03-01T07:25:32;10.57;;;8.67;;
5125;SDS011;63008;53.112;8.896;2023-03-01T07:27:33;13.73;;;8.60;;
5125;SDS011;63008;53.112;8.896;2023-03-01T07:29:34;11.80;;;8.63;;
5125;SDS011;63008;53.112;8.896;2023-03-01T07:31:37;15.80;;;9.63;;
5125;SDS011;63008;53.112;8.896;2023-03-01T07:33:38;13.20;;;8.70;;
5125;SDS011;63008;53.112;8.896;2023-03-01T07:35:39;12.20;;;10.10;;
5125;SDS011;63008;53.112;8.896;2023-03-01T07:37:40;17.00;;;10.10;;
5125;SDS011;63008;53.112;8.896;2023-03-01T07:39:41;17.00;;;11.13;;
5125;SDS011;63008;53.112;8.896;2023-03-01T07:41:42;16.77;;;11.40;;
5125;SDS011;63008;53.112;8.896;2023-03-01T07:43:43;13.27;;;10.00;;
5125;SDS011;63008;53.112;8.896;2023-03-01T07:45:44;19.23;;;10.33;;
5125;SDS011;63008;53.112;8.896;2023-03-01T07:47:44;13.23;;;10.20;;
5125;SDS011;63008;53.112;8.896;2023-03-01T07:49:45;11.80;;;9.50;;
5125;SDS011;63008;53.112;8.896;2023-03-01T07:51:47;13.33;;;9.10;;
5125;SDS011;63008;53.112;8.896;2023-03-01T07:53:48;12.10;;;9.33;;
5125;SDS011;63008;53.112;8.896;2023-03-01T07:55:49;13.07;;;9.50;;
5125;SDS011;63008;53.112;8.896;2023-03-01T07:57:50;19.60;;;9.70;;
5125;SDS011;63008;53.112;8.896;2023-03-01T07:59:51;16.70;;;10.00;;
5125;SDS011;63008;53.112;8.896;2023-03-01T08:01:52;13.30;;;9.50;;
5125;SDS011;63008;53.112;8.896;2023-03-01T08:03:53;18.90;;;11.50;;
5125;SDS011;63008;53.112;8.896;2023-03-01T08:05:54;21.67;;;12.10;;
5125;SDS011;63008;53.112;8.896;2023-03-01T08:07:55;36.27;;;18.87;;
5125;SDS011;63008;53.112;8.896;2023-03-01T08:09:56;37.00;;;16.00;;
5125;SDS011;63008;53.112;8.896;2023-03-01T08:11:57;35.10;;;17.63;;
5125;SDS011;63008;53.112;8.896;2023-03-01T08:14:01;30.53;;;16.17;;
5125;SDS011;63008;53.112;8.896;2023-03-01T08:16:03;18.43;;;10.93;;
5125;SDS011;63008;53.112;8.896;2023-03-01T08:18:05;19.47;;;11.73;;
5125;SDS011;63008;53.112;8.896;2023-03-01T08:20:07;18.80;;;10.23;;
5125;SDS011;63008;53.112;8.896;2023-03-01T08:22:09;20.10;;;12.27;;
5125;SDS011;63008;53.112;8.896;2023-03-01T08:24:10;17.10;;;10.13;;
5125;SDS011;63008;53.112;8.896;2023-03-01T08:26:15;20.53;;;10.70;;
5125;SDS011;63008;53.112;8.896;2023-03-01T08:28:19;16.40;;;9.70;;
5125;SDS011;63008;53.112;8.896;2023-03-01T08:30:19;16.87;;;10.40;;
5125;SDS011;63008;53.112;8.896;2023-03-01T08:32:21;22.53;;;9.63;;
5125;SDS011;63008;53.112;8.896;2023-03-01T08:34:22;14.33;;;9.70;;
5125;SDS011;63008;53.112;8.896;2023-03-01T08:36:26;12.83;;;8.60;;
5125;SDS011;63008;53.112;8.896;2023-03-01T08:38:32;12.07;;;9.40;;
5125;SDS011;63008;53.112;8.896;2023-03-01T08:40:34;10.60;;;8.70;;
5125;SDS011;63008;53.112;8.896;2023-03-01T08:42:38;12.23;;;9.47;;
5125;SDS011;63008;53.112;8.896;2023-03-01T08:44:40;8.33;;;7.07;;
5125;SDS011;63008;53.112;8.896;2023-03-01T08:46:42;9.20;;;7.67;;
5125;SDS011;63008;53.112;8.896;2023-03-01T08:48:44;15.10;;;9.30;;
5125;SDS011;63008;53.112;8.896;2023-03-01T08:50:45;12.57;;;8.30;;
5125;SDS011;63008;53.112;8.896;2023-03-01T08:52:46;11.97;;;8.47;;
5125;SDS011;63008;53.112;8.896;2023-03-01T08:54:47;8.87;;;7.27;;
5125;SDS011;63008;53.112;8.896;2023-03-01T08:56:49;8.80;;;7.33;;
5125;SDS011;63008;53.112;8.896;2023-03-01T08:58:50;13.53;;;8.30;;
5125;SDS011;63008;53.112;8.896;2023-03-01T09:00:51;9.53;;;7.50;;
5125;SDS011;63008;53.112;8.896;2023-03-01T09:02:52;13.33;;;7.60;;
5125;SDS011;63008;53.112;8.896;2023-03-01T09:04:53;9.63;;;8.10;;
5125;SDS011;63008;53.112;8.896;2023-03-01T09:06:54;12.50;;;7.43;;
5125;SDS011;63008;53.112;8.896;2023-03-01T09:08:55;12.83;;;7.87;;
5125;SDS011;63008;53.112;8.896;2023-03-01T09:10:56;7.93;;;6.30;;
5125;SDS011;63008;53.112;8.896;2023-03-01T09:12:57;10.83;;;7.10;;
5125;SDS011;63008;53.112;8.896;2023-03-01T09:14:58;8.40;;;5.90;;
5125;SDS011;63008;53.112;8.896;2023-03-01T09:16:59;10.67;;;5.67;;
5125;SDS011;63008;53.112;8.896;2023-03-01T09:19:03;8.10;;;5.10;;
5125;SDS011;63008;53.112;8.896;2023-03-01T09:21:05;8.90;;;5.80;;
5125;SDS011;63008;53.112;8.896;2023-03-01T09:23:10;8.03;;;6.57;;
5125;SDS011;63008;53.112;8.896;2023-03-01T09:25:11;6.93;;;6.07;;
5125;SDS011;63008;53.112;8.896;2023-03-01T09:27:12;7.63;;;5.60;;
5125;SDS011;63008;53.112;8.896;2023-03-01T09:29:15;7.20;;;5.43;;
5125;SDS011;63008;53.112;8.896;2023-03-01T09:31:17;8.60;;;6.20;;
5125;SDS011;63008;53.112;8.896;2023-03-01T09:33:20;9.43;;;6.47;;
5125;SDS011;63008;53.112;8.896;2023-03-01T09:35:21;9.70;;;6.20;;
5125;SDS011;63008;53.112;8.896;2023-03-01T09:37:23;16.07;;;7.33;;
5125;SDS011;63008;53.112;8.896;2023-03-01T09:39:24;8.97;;;6.93;;
5125;SDS011;63008;53.112;8.896;2023-03-01T09:41:43;9.43;;;6.50;;
5125;SDS011;63008;53.112;8.896;2023-03-01T09:43:48;7.67;;;5.80;;
5125;SDS011;63008;53.112;8.896;2023-03-01T09:45:58;7.83;;;5.90;;
5125;SDS011;63008;53.112;8.896;2023-03-01T09:48:04;7.97;;;5.60;;
5125;SDS011;63008;53.112;8.896;2023-03-01T09:54:48;7.23;;;4.80;;
5125;SDS011;63008;53.112;8.896;2023-03-01T09:56:59;8.20;;;5.30;;
5125;SDS011;63008;53.112;8.896;2023-03-01T09:59:34;6.17;;;4.83;;
5125;SDS011;63008;53.112;8.896;2023-03-01T10:01:53;8.40;;;5.27;;
5125;SDS011;63008;53.112;8.896;2023-03-01T10:09:12;5.60;;;4.37;;
5125;SDS011;63008;53.112;8.896;2023-03-01T10:11:18;8.30;;;4.93;;
5125;SDS011;63008;53.112;8.896;2023-03-01T10:13:31;4.97;;;4.57;;
5125;SDS011;63008;53.112;8.896;2023-03-01T10:15:53;7.13;;;4.70;;
5125;SDS011;63008;53.112;8.896;2023-03-01T10:18:00;6.80;;;4.77;;
5125;SDS011;63008;53.112;8.896;2023-03-01T10:20:28;5.60;;;4.97;;
5125;SDS011;63008;53.112;8.896;2023-03-01T10:22:38;5.87;;;4.87;;
5125;SDS011;63008;53.112;8.896;2023-03-01T10:24:39;6.70;;;5.10;;
5125;SDS011;63008;53.112;8.896;2023-03-01T10:26:44;15.87;;;5.47;;
5125;SDS011;63008;53.112;8.896;2023-03-01T10:31:13;6.40;;;5.20;;
5125;SDS011;63008;53.112;8.896;2023-03-01T10:35:28;7.97;;;5.33;;
5125;SDS011;63008;53.112;8.896;2023-03-01T10:37:30;8.40;;;6.27;;
5125;SDS011;63008;53.112;8.896;2023-03-01T10:39:31;9.77;;;6.60;;
5125;SDS011;63008;53.112;8.896;2023-03-01T10:41:32;6.80;;;5.70;;
5125;SDS011;63008;53.112;8.896;2023-03-01T10:43:46;7.27;;;6.00;;
5125;SDS011;63008;53.112;8.896;2023-03-01T10:45:52;8.27;;;6.53;;
5125;SDS011;63008;53.112;8.896;2023-03-01T10:48:03;8.63;;;7.03;;
5125;SDS011;63008;53.112;8.896;2023-03-01T10:50:20;7.73;;;6.93;;
5125;SDS011;63008;53.112;8.896;2023-03-01T10:52:24;8.03;;;7.00;;
5125;SDS011;63008;53.112;8.896;2023-03-01T10:54:28;8.90;;;8.00;;
5125;SDS011;63008;53.112;8.896;2023-03-01T10:56:30;11.33;;;7.77;;
5125;SDS011;63008;53.112;8.896;2023-03-01T10:59:01;10.10;;;9.10;;
5125;SDS011;63008;53.112;8.896;2023-03-01T11:01:27;9.87;;;8.83;;
5125;SDS011;63008;53.112;8.896;2023-03-01T11:03:35;8.83;;;7.43;;
5125;SDS011;63008;53.112;8.896;2023-03-01T11:05:55;9.20;;;8.37;;
5125;SDS011;63008;53.112;8.896;2023-03-01T11:07:59;11.33;;;8.23;;
5125;SDS011;63008;53.112;8.896;2023-03-01T11:10:06;10.10;;;8.23;;
5125;SDS011;63008;53.112;8.896;2023-03-01T11:12:15;9.23;;;8.30;;
5125;SDS011;63008;53.112;8.896;2023-03-01T11:16:25;9.90;;;8.50;;
5125;SDS011;63008;53.112;8.896;2023-03-01T11:18:36;8.73;;;7.93;;
5125;SDS011;63008;53.112;8.896;2023-03-01T11:20:37;11.03;;;9.00;;
5125;SDS011;63008;53.112;8.896;2023-03-01T11:22:39;9.83;;;8.93;;
5125;SDS011;63008;53.112;8.896;2023-03-01T11:24:49;10.00;;;8.90;;
5125;SDS011;63008;53.112;8.896;2023-03-01T11:26:53;10.07;;;9.00;;
5125;SDS011;63008;53.112;8.896;2023-03-01T11:28:55;10.20;;;8.90;;
5125;SDS011;63008;53.112;8.896;2023-03-01T11:31:08;9.73;;;8.83;;
5125;SDS011;63008;53.112;8.896;2023-03-01T11:35:36;10.50;;;9.37;;
5125;SDS011;63008;53.112;8.896;2023-03-01T11:40:03;10.17;;;9.20;;
5125;SDS011;63008;53.112;8.896;2023-03-01T11:42:20;11.70;;;9.87;;
5125;SDS011;63008;53.112;8.896;2023-03-01T11:44:28;10.13;;;9.20;;
5125;SDS011;63008;53.112;8.896;2023-03-01T11:54:13;15.30;;;9.93;;
5125;SDS011;63008;53.112;8.896;2023-03-01T12:01:32;9.30;;;8.40;;
5125;SDS011;63008;53.112;8.896;2023-03-01T12:08:27;10.70;;;9.67;;
5125;SDS011;63008;53.112;8.896;2023-03-01T12:10:33;9.67;;;8.70;;
5125;SDS011;63008;53.112;8.896;2023-03-01T12:17:25;9.63;;;8.00;;
5125;SDS011;63008;53.112;8.896;2023-03-01T12:24:38;8.93;;;7.97;;
5125;SDS011;63008;53.112;8.896;2023-03-01T12:26:54;9.50;;;8.50;;
5125;SDS011;63008;53.112;8.896;2023-03-01T12:31:38;10.90;;;8.37;;
5125;SDS011;63008;53.112;8.896;2023-03-01T12:34:19;10.70;;;8.43;;
5125;SDS011;63008;53.112;8.896;2023-03-01T12:39:10;9.13;;;8.23;;
5125;SDS011;63008;53.112;8.896;2023-03-01T12:44:08;8.67;;;7.87;;
5125;SDS011;63008;53.112;8.896;2023-03-01T12:46:53;8.43;;;7.70;;
5125;SDS011;63008;53.112;8.896;2023-03-01T12:51:44;9.80;;;8.90;;
5125;SDS011;63008;53.112;8.896;2023-03-01T12:54:19;8.27;;;7.40;;
5125;SDS011;63008;53.112;8.896;2023-03-01T12:56:27;8.40;;;7.70;;
5125;SDS011;63008;53.112;8.896;2023-03-01T13:03:26;9.20;;;8.30;;
5125;SDS011;63008;53.112;8.896;2023-03-01T13:08:39;12.23;;;8.90;;
5125;SDS011;63008;53.112;8.896;2023-03-01T13:10:51;8.37;;;7.67;;
5125;SDS011;63008;53.112;8.896;2023-03-01T13:13:03;9.70;;;8.30;;
5125;SDS011;63008;53.112;8.896;2023-03-01T13:15:36;7.80;;;7.07;;
5125;SDS011;63008;53.112;8.896;2023-03-01T13:17:42;8.00;;;7.30;;
5125;SDS011;63008;53.112;8.896;2023-03-01T13:19:55;8.77;;;7.30;;
5125;SDS011;63008;53.112;8.896;2023-03-01T13:21:58;9.70;;;8.20;;
5125;SDS011;63008;53.112;8.896;2023-03-01T13:23:59;10.30;;;8.43;;
5125;SDS011;63008;53.112;8.896;2023-03-01T13:26:02;8.47;;;7.57;;
5125;SDS011;63008;53.112;8.896;2023-03-01T13:28:32;10.43;;;7.83;;
5125;SDS011;63008;53.112;8.896;2023-03-01T13:30:47;9.93;;;8.87;;
5125;SDS011;63008;53.112;8.896;2023-03-01T13:32:48;8.60;;;7.90;;
5125;SDS011;63008;53.112;8.896;2023-03-01T13:34:53;9.00;;;8.10;;
5125;SDS011;63008;53.112;8.896;2023-03-01T13:37:19;10.50;;;8.07;;